PDT,Max TemperatureF,Mean TemperatureF,Min TemperatureF,Max Dew PointF,MeanDew PointF,Min DewpointF,Max Humidity, Mean Humidity, Min Humidity, Max Sea Level PressureIn, Mean Sea Level PressureIn, Min Sea Level PressureIn, Max VisibilityMiles, Mean VisibilityMiles, Min VisibilityMiles, Max Wind SpeedMPH, Mean Wind SpeedMPH, Max Gust SpeedMPH,PrecipitationIn, CloudCover, Events, WindDirDegrees
2013-3-1,54,52,50,48,47,46,94,85,77,30.33,30.29,30.26,10,10,8,36,24,45,0.00,6,Rain,180
2013-3-2,54,46,37,46,41,34,93,81,69,30.26,30.16,30.07,10,9,2,25,14,37,0.22,6,Rain,192
2013-3-3,46,40,35,36,33,27,96,78,46,30.32,30.27,30.20,10,10,10,9,5,,0.00,4,,192
2013-3-4,48,40,33,34,29,23,82,64,43,30.31,30.15,29.94,10,10,10,9,5,,0.00,0,,56
2013-3-5,48,44,39,39,32,21,93,66,39,29.92,29.81,29.74,10,10,10,10,6,,0.02,7,Rain,326
2013-3-6,41,40,39,39,38,37,100,92,86,29.89,29.72,29.60,10,8,4,13,5,17,0.36,8,Rain,343
2013-3-7,46,42,37,43,39,37,100,91,76,30.10,30.04,29.91,10,7,0,9,5,,0.25,7,Fog-Rain,116
2013-3-8,48,42,35,38,36,34,100,89,66,30.25,30.12,30.08,10,5,0,8,2,,0.00,2,Fog,12
2013-3-9,51,40,30,39,35,30,100,87,54,30.51,30.40,30.26,10,5,0,8,2,,0.00,2,Fog,219
2013-3-10,46,42,37,40,38,35,93,83,68,30.50,30.45,30.43,10,10,6,7,2,,0.01,8,,202
2013-3-11,50,44,39,43,39,33,100,83,54,30.45,30.36,30.16,10,8,2,12,3,17,0.00,8,Rain,140
2013-3-12,55,50,46,49,46,44,94,84,71,30.14,30.07,30.03,10,10,7,30,19,44,0.12,8,Rain,180
2013-3-13,51,50,48,48,47,46,94,88,86,30.19,30.14,30.08,10,9,5,23,16,34,0.17,8,Rain,166
2013-3-14,51,48,46,48,45,41,93,85,71,30.15,30.07,30.03,10,9,4,24,12,31,0.01,6,Rain,166
2013-3-15,57,52,46,46,45,44,93,82,64,30.21,30.17,30.14,10,10,10,16,10,23,0.00,7,,183
2013-3-16,50,42,35,44,39,34,96,85,68,30.12,29.98,29.89,10,9,2,29,10,36,0.31,8,Rain,179
2013-3-17,46,41,37,36,34,32,93,83,60,30.19,30.13,29.98,10,10,8,10,6,,0.04,7,Rain,185
2013-3-18,48,42,37,37,33,30,93,74,52,30.25,30.17,30.09,10,10,5,21,10,29,0.03,6,Rain,210
2013-3-19,55,45,36,39,32,22,93,68,29,30.22,29.95,29.60,10,10,7,17,6,29,0.22,4,Rain,118
2013-3-20,50,42,35,46,39,30,93,84,66,30.01,29.60,29.38,10,9,4,34,13,47,0.69,7,Rain,159
2013-3-21,44,38,35,34,33,27,92,80,65,30.22,30.15,30.02,10,10,10,9,6,,0.01,7,Rain,210
2013-3-22,44,38,32,34,31,25,96,85,55,30.38,30.27,30.20,10,5,0,10,5,,0.60,6,Fog-Rain-Snow,19
2013-3-23,46,39,32,32,27,22,82,65,40,30.41,30.37,30.32,10,10,10,7,3,,0.00,1,,138
2013-3-24,53,44,34,31,28,26,79,59,38,30.31,30.23,30.14,10,10,10,8,5,,0.00,2,,101
2013-3-25,57,48,39,35,28,24,68,49,32,30.14,30.04,29.96,10,10,10,9,6,,0.00,0,,55
2013-3-26,55,49,43,38,35,32,74,60,42,30.03,29.99,29.97,10,10,10,8,3,,0.00,5,,335
2013-3-27,53,48,42,45,40,36,86,74,61,30.01,29.98,29.95,10,10,10,8,2,,0.00,6,Rain,348
2013-3-28,59,50,43,46,43,40,93,78,53,30.16,30.08,30.01,10,8,1,7,2,,0.02,5,Rain,242
2013-3-29,60,52,44,45,42,39,96,75,55,30.27,30.23,30.17,10,9,2,7,3,,0.01,2,Rain,28
2013-3-30,60,50,42,45,43,41,100,84,55,30.27,30.23,30.10,10,6,0,12,5,,0.01,1,Fog,5
2013-3-31,64,54,45,43,42,39,90,67,43,30.09,30.01,29.94,10,10,10,7,4,,0.00,0,,1